Time;durP1;ratioP1;P1;durP2;ratioP2;P2;SDS_P1;SDS_P2;PMS_P1;PMS_P2;Temp;Humidity;BMP_temperature;BMP_pressure;BME280_temperature;BME280_humidity;BME280_pressure;Samples;Min_cycle;Max_cycle;Signal;HPM_P1;HPM_P2
2023/12/12 00:00:29;;;;;;;16.65;9.38;;;14.70;92.80;;;;;;4994656;28;20067;-80
2023/12/12 00:02:59;;;;;;;15.85;9.15;;;14.70;92.70;;;;;;4994892;28;20038;-82
2023/12/12 00:05:25;;;;;;;13.85;8.38;;;14.70;92.80;;;;;;4994937;28;20026;-82
2023/12/12 00:07:51;;;;;;;15.93;8.60;;;14.80;92.90;;;;;;4995279;28;20165;-82
2023/12/12 00:10:16;;;;;;;17.27;10.63;;;14.80;93.10;;;;;;4994522;28;20049;-83
2023/12/12 00:12:43;;;;;;;16.25;8.88;;;14.90;92.90;;;;;;4994112;28;20078;-81
2023/12/12 00:15:09;;;;;;;17.73;9.48;;;14.90;92.90;;;;;;4994427;28;20045;-81
2023/12/12 00:17:39;;;;;;;18.77;8.82;;;15.00;93.30;;;;;;4994776;28;20062;-81
2023/12/12 00:20:08;;;;;;;17.27;9.57;;;15.00;93.00;;;;;;4994668;28;20495;-81
2023/12/12 00:22:33;;;;;;;18.08;9.38;;;15.10;93.10;;;;;;4994576;28;20034;-82
2023/12/12 00:24:59;;;;;;;18.00;8.68;;;15.00;93.00;;;;;;4994419;28;20092;-83
2023/12/12 00:27:25;;;;;;;21.95;8.85;;;15.10;93.00;;;;;;4994464;28;20038;-80
2023/12/12 00:29:51;;;;;;;17.58;8.52;;;15.10;93.00;;;;;;4994599;28;20057;-81
2023/12/12 00:32:16;;;;;;;18.95;8.82;;;15.10;93.00;;;;;;4994927;28;20088;-80
2023/12/12 00:34:42;;;;;;;18.00;9.20;;;15.10;93.10;;;;;;4994613;28;20034;-81
2023/12/12 00:37:08;;;;;;;17.77;8.68;;;15.10;93.20;;;;;;4994516;28;20084;-82
2023/12/12 00:39:38;;;;;;;14.65;8.82;;;15.10;93.20;;;;;;4994186;28;20084;-80
2023/12/12 00:42:04;;;;;;;14.85;8.73;;;15.10;93.10;;;;;;4994155;28;20062;-80
2023/12/12 00:44:29;;;;;;;17.50;9.10;;;15.20;93.20;;;;;;4994212;28;20080;-81
2023/12/12 00:46:55;;;;;;;15.13;9.00;;;15.20;93.20;;;;;;4976514;28;20088;-81
2023/12/12 00:49:21;;;;;;;20.98;7.32;;;15.20;93.20;;;;;;4994208;28;20365;-80
2023/12/12 00:51:46;;;;;;;13.70;6.43;;;15.20;93.30;;;;;;4994051;28;20349;-80
2023/12/12 00:54:12;;;;;;;17.35;8.02;;;15.20;93.30;;;;;;4993784;28;20034;-80
2023/12/12 00:56:38;;;;;;;22.23;7.22;;;15.30;93.30;;;;;;4992203;28;20056;-79
2023/12/12 00:59:04;;;;;;;13.40;6.43;;;15.30;93.30;;;;;;4993287;28;20558;-82
2023/12/12 01:01:29;;;;;;;18.20;5.97;;;15.40;93.30;;;;;;4993501;28;20019;-81
2023/12/12 01:03:55;;;;;;;17.98;5.70;;;15.40;93.40;;;;;;4993799;28;20037;-80
2023/12/12 01:06:23;;;;;;;15.02;5.70;;;15.40;93.40;;;;;;4993160;28;20031;-80
2023/12/12 01:08:49;;;;;;;16.92;6.30;;;15.40;93.50;;;;;;4993523;28;20381;-80
2023/12/12 01:11:14;;;;;;;13.05;5.18;;;15.50;93.50;;;;;;4993426;28;20102;-80
2023/12/12 01:13:40;;;;;;;15.82;5.88;;;15.50;93.60;;;;;;4993102;28;20045;-80
2023/12/12 01:16:06;;;;;;;13.30;4.80;;;15.50;93.70;;;;;;4993024;28;20073;-80
2023/12/12 01:18:32;;;;;;;13.60;5.53;;;15.50;93.60;;;;;;4993161;28;20042;-81
2023/12/12 01:20:58;;;;;;;11.98;4.75;;;15.60;93.70;;;;;;4992976;28;20542;-80
2023/12/12 01:23:23;;;;;;;18.25;4.65;;;15.60;93.70;;;;;;4993124;28;20381;-79
2023/12/12 01:25:49;;;;;;;19.98;5.68;;;15.60;93.70;;;;;;4992939;28;20033;-80
2023/12/12 01:28:15;;;;;;;14.43;4.80;;;15.60;93.70;;;;;;4992873;28;20885;-81
2023/12/12 01:30:40;;;;;;;13.20;5.20;;;15.60;93.70;;;;;;4992828;28;20030;-79
2023/12/12 01:33:06;;;;;;;17.75;5.32;;;15.60;93.70;;;;;;4993124;28;20229;-80
2023/12/12 01:35:32;;;;;;;13.07;4.88;;;15.60;93.70;;;;;;4992963;28;20377;-80
2023/12/12 01:37:57;;;;;;;14.68;4.70;;;15.60;93.70;;;;;;4994355;28;20070;-81
2023/12/12 01:40:23;;;;;;;13.57;4.70;;;15.70;93.80;;;;;;4994908;28;20034;-80
2023/12/12 01:42:49;;;;;;;17.02;5.57;;;15.70;93.70;;;;;;4992876;28;20504;-79
2023/12/12 01:45:15;;;;;;;14.90;5.20;;;15.70;93.70;;;;;;4992896;28;20034;-81
2023/12/12 01:47:40;;;;;;;16.90;4.10;;;15.70;93.70;;;;;;4992433;28;20396;-79
2023/12/12 01:50:07;;;;;;;13.60;4.30;;;15.70;93.70;;;;;;4993082;28;20044;-81
2023/12/12 01:52:34;;;;;;;16.35;3.97;;;15.70;93.80;;;;;;4992858;28;20030;-81
2023/12/12 01:55:00;;;;;;;15.30;4.75;;;15.70;93.80;;;;;;4992616;28;20070;-80
2023/12/12 01:57:26;;;;;;;13.68;4.63;;;15.70;93.70;;;;;;4992710;28;20031;-81
2023/12/12 01:59:53;;;;;;;17.13;3.70;;;15.70;94.00;;;;;;4992862;28;20517;-80
2023/12/12 02:02:19;;;;;;;13.77;4.22;;;15.80;93.90;;;;;;4991451;28;20059;-79
2023/12/12 02:04:48;;;;;;;19.05;4.13;;;15.80;93.90;;;;;;4992289;28;20492;-80
2023/12/12 02:07:14;;;;;;;17.73;4.40;;;15.80;93.90;;;;;;4992619;28;20399;-80
2023/12/12 02:09:40;;;;;;;15.23;4.18;;;15.80;93.90;;;;;;4992756;28;20105;-79
2023/12/12 02:12:06;;;;;;;14.25;3.47;;;15.80;93.90;;;;;;4992725;28;20054;-79
2023/12/12 02:14:33;;;;;;;11.38;3.53;;;15.90;94.00;;;;;;4992845;28;20322;-80
2023/12/12 02:16:59;;;;;;;15.02;3.50;;;15.90;94.00;;;;;;4992982;28;20030;-79
2023/12/12 02:19:24;;;;;;;10.88;2.80;;;15.90;94.00;;;;;;4996428;28;20064;-79
2023/12/12 02:21:50;;;;;;;15.43;4.47;;;15.90;94.10;;;;;;4996345;28;20034;-80
2023/12/12 02:24:16;;;;;;;14.77;3.92;;;15.90;94.20;;;;;;4996072;28;20415;-79
2023/12/12 02:26:42;;;;;;;13.85;3.53;;;15.90;94.10;;;;;;4996256;28;20038;-79
2023/12/12 02:29:08;;;;;;;13.77;4.75;;;15.90;94.10;;;;;;4996437;28;20495;-79
2023/12/12 02:31:33;;;;;;;13.98;3.30;;;15.90;94.20;;;;;;4996589;28;20050;-79
2023/12/12 02:33:59;;;;;;;12.75;3.28;;;15.90;94.20;;;;;;4996176;28;20038;-80
2023/12/12 02:36:25;;;;;;;16.50;4.13;;;15.80;94.10;;;;;;4996042;28;20113;-78
2023/12/12 02:38:51;;;;;;;10.93;3.22;;;15.80;94.20;;;;;;4995811;28;20047;-80
2023/12/12 02:41:16;;;;;;;15.27;3.47;;;15.90;94.20;;;;;;4995972;28;20074;-81
2023/12/12 02:43:42;;;;;;;18.65;4.18;;;15.80;94.20;;;;;;4995805;28;20423;-81
2023/12/12 02:46:08;;;;;;;12.13;3.33;;;15.80;94.20;;;;;;4996272;28;20044;-79
2023/12/12 02:48:33;;;;;;;16.73;3.50;;;15.90;94.30;;;;;;4994629;28;20038;-80
2023/12/12 02:50:59;;;;;;;13.45;4.18;;;15.90;94.20;;;;;;4995562;28;20507;-80
2023/12/12 02:53:25;;;;;;;13.90;3.08;;;15.90;94.30;;;;;;4995696;28;20432;-80
2023/12/12 02:55:50;;;;;;;13.20;3.55;;;15.90;94.30;;;;;;4995651;28;20042;-81
2023/12/12 02:58:16;;;;;;;15.05;3.42;;;15.90;94.30;;;;;;4996081;28;20050;-80
2023/12/12 03:00:42;;;;;;;16.20;3.15;;;15.90;94.30;;;;;;4996032;28;20507;-81
2023/12/12 03:03:07;;;;;;;16.10;3.65;;;15.90;94.30;;;;;;4996309;28;20034;-79
2023/12/12 03:05:33;;;;;;;14.02;3.15;;;15.90;94.30;;;;;;4995944;28;20081;-79
2023/12/12 03:07:59;;;;;;;14.60;4.20;;;15.90;94.40;;;;;;4995792;28;20100;-79
2023/12/12 03:10:24;;;;;;;14.70;3.67;;;15.90;94.60;;;;;;4995427;28;20576;-81
2023/12/12 03:12:50;;;;;;;12.52;3.17;;;15.90;94.40;;;;;;4995464;28;20046;-81
2023/12/12 03:15:17;;;;;;;13.27;3.85;;;15.90;94.40;;;;;;4995644;28;20050;-80
2023/12/12 03:17:43;;;;;;;13.63;4.20;;;15.90;94.30;;;;;;4995248;28;20121;-79
2023/12/12 03:20:08;;;;;;;12.35;3.90;;;15.90;94.40;;;;;;4995207;28;20121;-79
2023/12/12 03:22:34;;;;;;;16.23;4.35;;;15.90;94.30;;;;;;4995209;28;20499;-80
2023/12/12 03:25:00;;;;;;;15.65;4.30;;;15.90;94.30;;;;;;4995263;28;20042;-80
2023/12/12 03:27:26;;;;;;;18.83;4.35;;;15.90;94.30;;;;;;4995055;28;20444;-79
2023/12/12 03:29:52;;;;;;;15.35;4.85;;;15.90;94.30;;;;;;4994382;28;20042;-81
2023/12/12 03:32:17;;;;;;;12.43;4.88;;;15.80;94.30;;;;;;4994945;28;20027;-81
2023/12/12 03:34:43;;;;;;;13.35;4.85;;;15.80;94.30;;;;;;4995190;28;20483;-81
2023/12/12 03:37:09;;;;;;;16.50;5.47;;;15.80;94.30;;;;;;4995264;28;20077;-80
2023/12/12 03:39:37;;;;;;;16.50;5.53;;;15.80;94.30;;;;;;4994773;28;20049;-80
2023/12/12 03:42:03;;;;;;;15.88;5.32;;;15.70;94.30;;;;;;4994927;28;20038;-80
2023/12/12 03:44:29;;;;;;;14.07;5.35;;;15.70;94.30;;;;;;4995185;28;20110;-80
2023/12/12 03:46:54;;;;;;;13.63;5.25;;;15.70;94.30;;;;;;4994909;28;20579;-79
2023/12/12 03:49:20;;;;;;;15.25;6.03;;;15.60;94.20;;;;;;4994854;28;20035;-81
2023/12/12 03:51:46;;;;;;;19.25;6.03;;;15.60;94.30;;;;;;4995255;28;20125;-79
2023/12/12 03:54:11;;;;;;;10.70;4.70;;;15.60;94.20;;;;;;4994624;28;20042;-79
2023/12/12 03:56:37;;;;;;;17.80;5.90;;;15.50;94.20;;;;;;4995670;28;20041;-79
2023/12/12 03:59:03;;;;;;;13.27;5.70;;;15.50;94.20;;;;;;4995971;28;20499;-80
2023/12/12 04:01:28;;;;;;;13.95;5.55;;;15.50;94.20;;;;;;4994271;28;20030;-80
2023/12/12 04:03:55;;;;;;;11.98;5.07;;;15.50;94.20;;;;;;4994821;28;20435;-80
2023/12/12 04:06:22;;;;;;;13.23;5.53;;;15.50;94.30;;;;;;4994653;28;20117;-80
2023/12/12 04:08:49;;;;;;;16.77;5.28;;;15.50;94.40;;;;;;4994628;28;20097;-80
2023/12/12 04:11:14;;;;;;;13.32;5.30;;;15.50;94.40;;;;;;4994436;28;20051;-79
2023/12/12 04:13:40;;;;;;;15.13;5.63;;;15.50;94.50;;;;;;4995376;28;20101;-80
2023/12/12 04:16:06;;;;;;;13.45;4.95;;;15.50;94.30;;;;;;4995119;28;20036;-80
2023/12/12 04:18:31;;;;;;;13.80;5.10;;;15.50;94.30;;;;;;4994896;28;20381;-80
2023/12/12 04:20:57;;;;;;;13.88;5.40;;;15.50;94.30;;;;;;4995455;28;20030;-81
2023/12/12 04:23:23;;;;;;;13.75;5.00;;;15.50;94.30;;;;;;4977255;28;20034;-80
2023/12/12 04:25:48;;;;;;;15.20;5.18;;;15.50;94.30;;;;;;4994234;28;20449;-79
2023/12/12 04:28:14;;;;;;;14.32;4.68;;;15.50;94.40;;;;;;4994401;28;20100;-81
2023/12/12 04:30:40;;;;;;;10.02;4.78;;;15.50;94.30;;;;;;4994117;28;20515;-79
2023/12/12 04:33:06;;;;;;;13.20;4.78;;;15.50;94.30;;;;;;4993861;28;20034;-80
2023/12/12 04:35:32;;;;;;;13.07;4.90;;;15.50;94.30;;;;;;4994226;28;20042;-79
2023/12/12 04:37:58;;;;;;;10.93;4.65;;;15.50;94.30;;;;;;4993983;28;20113;-80
2023/12/12 04:40:27;;;;;;;12.55;4.95;;;15.50;94.20;;;;;;4993482;28;20117;-80
2023/12/12 04:42:53;;;;;;;14.60;5.20;;;15.50;94.50;;;;;;4993645;28;20138;-79
2023/12/12 04:45:19;;;;;;;13.02;4.90;;;15.50;94.30;;;;;;4994277;28;20124;-79
2023/12/12 04:47:45;;;;;;;11.82;5.57;;;15.50;94.30;;;;;;4994249;28;20512;-80
2023/12/12 04:50:10;;;;;;;14.88;5.55;;;15.50;94.40;;;;;;4994424;28;20039;-80
2023/12/12 04:52:36;;;;;;;12.48;4.90;;;15.50;94.60;;;;;;4994427;28;20088;-81
2023/12/12 04:55:02;;;;;;;12.60;5.70;;;15.50;94.20;;;;;;4993719;28;20026;-81
2023/12/12 04:57:28;;;;;;;16.17;5.53;;;15.50;94.20;;;;;;4993546;28;20045;-80
2023/12/12 04:59:53;;;;;;;18.88;4.63;;;15.50;94.20;;;;;;4993568;28;20035;-81
2023/12/12 05:02:20;;;;;;;16.17;5.15;;;15.50;94.10;;;;;;4976150;28;20112;-79
2023/12/12 05:04:46;;;;;;;16.75;4.82;;;15.50;94.20;;;;;;4993574;28;20066;-80
2023/12/12 05:07:11;;;;;;;13.30;4.85;;;15.50;94.20;;;;;;4991848;28;20046;-80
2023/12/12 05:09:37;;;;;;;16.52;4.90;;;15.50;94.20;;;;;;4993599;28;20061;-80
2023/12/12 05:12:03;;;;;;;16.15;5.03;;;15.50;94.30;;;;;;4993339;28;20096;-81
2023/12/12 05:14:29;;;;;;;11.98;5.07;;;15.50;94.30;;;;;;4993610;28;20033;-82
2023/12/12 05:16:55;;;;;;;14.85;4.90;;;15.60;94.30;;;;;;4993312;28;20046;-81
2023/12/12 05:19:20;;;;;;;11.95;4.80;;;15.50;94.30;;;;;;4993388;28;20038;-80
2023/12/12 05:21:46;;;;;;;18.20;5.57;;;15.50;94.30;;;;;;4993095;28;20045;-81
2023/12/12 05:24:12;;;;;;;12.20;3.97;;;15.50;94.40;;;;;;4993395;28;20109;-80
2023/12/12 05:26:38;;;;;;;17.50;7.53;;;15.60;94.40;;;;;;4993167;28;20034;-80
2023/12/12 05:29:04;;;;;;;15.98;6.78;;;15.50;94.40;;;;;;4993162;28;20041;-79
2023/12/12 05:31:29;;;;;;;13.93;4.75;;;15.60;94.50;;;;;;4993181;28;20081;-81
2023/12/12 05:33:55;;;;;;;12.50;5.03;;;15.60;94.50;;;;;;4975477;28;20049;-82
2023/12/12 05:36:21;;;;;;;12.73;5.95;;;15.60;94.50;;;;;;4992918;28;20034;-81
2023/12/12 05:38:46;;;;;;;22.15;6.53;;;15.60;94.50;;;;;;4975700;28;20117;-80
2023/12/12 05:41:12;;;;;;;17.58;5.72;;;15.60;94.60;;;;;;4993320;28;20042;-81
2023/12/12 05:43:38;;;;;;;13.20;5.53;;;15.60;94.70;;;;;;4993026;28;20033;-80
2023/12/12 05:46:04;;;;;;;13.10;4.97;;;15.70;94.70;;;;;;4992685;28;20042;-81
2023/12/12 05:48:30;;;;;;;12.15;4.53;;;15.70;94.70;;;;;;4992791;28;20038;-80
2023/12/12 05:50:56;;;;;;;14.98;5.45;;;15.70;94.60;;;;;;4992923;28;20045;-82
2023/12/12 05:53:22;;;;;;;15.30;5.75;;;15.70;94.60;;;;;;4998048;28;20491;-81
2023/12/12 05:55:47;;;;;;;19.25;10.02;;;15.70;94.60;;;;;;4999490;28;20030;-79
2023/12/12 05:58:13;;;;;;;27.17;15.05;;;15.70;94.50;;;;;;4999330;28;20416;-80
2023/12/12 06:00:39;;;;;;;20.92;12.90;;;15.70;94.60;;;;;;4981953;28;20042;-80
2023/12/12 06:03:05;;;;;;;21.77;9.38;;;15.70;94.50;;;;;;4999461;28;20046;-80
2023/12/12 06:05:31;;;;;;;19.08;9.48;;;15.70;94.70;;;;;;4999446;28;20543;-80
2023/12/12 06:07:57;;;;;;;21.75;8.20;;;15.70;94.60;;;;;;4999503;28;20038;-81
2023/12/12 06:10:23;;;;;;;23.67;12.45;;;15.70;94.50;;;;;;4999529;28;20113;-80
2023/12/12 06:12:48;;;;;;;17.65;8.13;;;15.70;94.60;;;;;;4999251;28;20117;-82
2023/12/12 06:15:14;;;;;;;15.80;6.82;;;15.70;94.50;;;;;;4999365;28;20362;-82
2023/12/12 06:17:40;;;;;;;16.45;5.95;;;15.70;94.60;;;;;;4999347;28;20097;-82
2023/12/12 06:20:07;;;;;;;16.73;5.90;;;15.70;94.50;;;;;;4999442;28;20389;-78
2023/12/12 06:22:34;;;;;;;17.30;5.82;;;15.80;94.70;;;;;;4999436;28;20030;-81
2023/12/12 06:24:59;;;;;;;19.05;6.03;;;15.80;94.60;;;;;;4999636;28;20030;-81
2023/12/12 06:27:25;;;;;;;15.70;5.30;;;15.80;94.50;;;;;;4999904;28;20034;-79
2023/12/12 06:29:51;;;;;;;15.13;5.47;;;15.80;94.60;;;;;;4999290;28;20070;-80
2023/12/12 06:32:17;;;;;;;17.98;5.60;;;15.80;94.60;;;;;;5000125;28;20484;-82
2023/12/12 06:34:43;;;;;;;19.83;6.28;;;15.80;94.60;;;;;;4999545;28;20476;-82
2023/12/12 06:37:10;;;;;;;14.40;4.72;;;15.80;94.60;;;;;;4999375;28;20113;-80
2023/12/12 06:39:36;;;;;;;17.83;5.03;;;15.80;94.70;;;;;;4999034;28;20053;-82
2023/12/12 06:42:02;;;;;;;15.48;4.40;;;15.80;94.70;;;;;;4999084;28;20038;-81
2023/12/12 06:44:28;;;;;;;14.95;4.47;;;15.80;94.70;;;;;;4999445;28;20049;-81
2023/12/12 06:46:53;;;;;;;20.15;5.72;;;15.80;94.60;;;;;;4999254;28;20026;-80
2023/12/12 06:49:19;;;;;;;15.75;5.00;;;15.80;94.70;;;;;;5000378;28;20510;-80
2023/12/12 06:51:45;;;;;;;13.50;4.85;;;15.90;94.70;;;;;;5000982;28;20097;-80
2023/12/12 06:54:10;;;;;;;15.60;4.82;;;15.90;94.70;;;;;;4999669;28;20057;-80
2023/12/12 06:56:36;;;;;;;12.68;5.20;;;15.90;94.70;;;;;;4999556;28;20035;-81
2023/12/12 06:59:02;;;;;;;15.05;4.35;;;15.90;94.70;;;;;;4999172;28;20061;-79
2023/12/12 07:01:27;;;;;;;17.73;4.63;;;16.00;94.70;;;;;;4999024;28;20022;-80
2023/12/12 07:03:53;;;;;;;16.83;4.75;;;16.00;94.70;;;;;;4997155;28;20053;-81
2023/12/12 07:06:19;;;;;;;16.25;4.28;;;16.00;94.70;;;;;;4997988;28;20034;-80
2023/12/12 07:08:44;;;;;;;16.45;4.78;;;16.00;94.60;;;;;;4997079;28;20060;-81
2023/12/12 07:11:11;;;;;;;17.17;4.10;;;16.10;94.80;;;;;;4996006;28;20109;-79
2023/12/12 07:13:38;;;;;;;26.13;5.22;;;16.10;94.70;;;;;;4996106;28;20038;-80
2023/12/12 07:16:04;;;;;;;15.00;3.83;;;16.10;94.70;;;;;;4995944;28;20037;-80
2023/12/12 07:18:30;;;;;;;18.55;4.85;;;16.10;94.80;;;;;;4996210;28;20126;-81
2023/12/12 07:20:58;;;;;;;17.15;4.35;;;16.10;94.70;;;;;;4997198;28;20062;-82
2023/12/12 07:23:23;;;;;;;18.58;4.40;;;16.10;94.70;;;;;;4996243;28;20026;-81
2023/12/12 07:25:49;;;;;;;16.38;4.60;;;16.10;94.80;;;;;;4978148;28;20057;-81
2023/12/12 07:28:15;;;;;;;20.88;4.72;;;16.10;94.70;;;;;;4995799;28;20034;-81
2023/12/12 07:30:42;;;;;;;15.63;5.03;;;16.20;94.70;;;;;;4995349;28;20519;-79
2023/12/12 07:33:08;;;;;;;13.52;4.30;;;16.20;94.70;;;;;;4978272;28;20480;-80
2023/12/12 07:35:33;;;;;;;15.70;4.50;;;16.20;94.70;;;;;;4995951;28;20027;-82
2023/12/12 07:38:01;;;;;;;14.75;4.55;;;16.20;94.60;;;;;;4995935;28;20165;-83
2023/12/12 07:40:27;;;;;;;13.35;4.63;;;16.30;94.70;;;;;;4995729;28;20038;-81
2023/12/12 07:42:53;;;;;;;13.85;3.90;;;16.30;94.60;;;;;;4995318;28;20038;-81
2023/12/12 07:45:19;;;;;;;14.18;4.15;;;16.30;94.60;;;;;;4996020;28;20531;-82
2023/12/12 07:47:45;;;;;;;13.75;5.28;;;16.30;94.60;;;;;;4995622;28;20105;-82
2023/12/12 07:50:10;;;;;;;16.40;5.30;;;16.40;94.70;;;;;;4995556;28;20040;-82
2023/12/12 07:52:37;;;;;;;18.08;5.28;;;16.40;94.50;;;;;;4995458;28;20038;-82
2023/12/12 07:55:02;;;;;;;12.13;4.90;;;16.40;94.50;;;;;;4995088;28;20034;-82
2023/12/12 07:57:28;;;;;;;16.83;5.10;;;16.40;94.50;;;;;;4994912;28;20038;-80
2023/12/12 07:59:54;;;;;;;12.75;4.60;;;16.50;94.50;;;;;;4995180;28;20109;-80
2023/12/12 08:02:21;;;;;;;19.63;5.50;;;16.50;94.40;;;;;;4995344;28;20407;-82
2023/12/12 08:04:47;;;;;;;14.05;5.55;;;16.50;94.30;;;;;;4994936;28;20027;-81
2023/12/12 08:07:13;;;;;;;15.98;4.78;;;16.60;94.40;;;;;;4995026;28;20083;-81
2023/12/12 08:09:39;;;;;;;18.92;5.50;;;16.60;94.30;;;;;;4994998;28;20480;-82
2023/12/12 08:12:05;;;;;;;16.00;5.35;;;16.60;94.30;;;;;;4994642;28;20047;-80
2023/12/12 08:14:30;;;;;;;24.10;6.85;;;16.60;94.30;;;;;;4994974;28;20105;-80
2023/12/12 08:16:56;;;;;;;15.75;6.05;;;16.60;94.20;;;;;;4994791;28;20076;-82
2023/12/12 08:19:22;;;;;;;16.23;6.05;;;16.60;94.20;;;;;;4994392;28;20346;-82
2023/12/12 08:21:48;;;;;;;18.75;6.45;;;16.70;94.20;;;;;;4994779;28;20256;-81
2023/12/12 08:24:14;;;;;;;17.40;5.53;;;16.70;94.10;;;;;;4994472;28;20030;-81
2023/12/12 08:26:44;;;;;;;20.08;5.72;;;16.70;94.10;;;;;;4994357;28;20473;-81
2023/12/12 08:29:11;;;;;;;15.93;5.18;;;16.70;94.10;;;;;;4994395;28;20038;-82
2023/12/12 08:31:37;;;;;;;16.38;5.75;;;16.70;94.00;;;;;;4994472;28;20114;-82
2023/12/12 08:34:03;;;;;;;15.18;5.05;;;16.80;94.00;;;;;;4994200;28;20030;-81
2023/12/12 08:36:29;;;;;;;14.70;5.10;;;16.80;94.00;;;;;;4994231;28;20030;-81
2023/12/12 08:38:57;;;;;;;15.63;4.90;;;16.90;93.90;;;;;;4994103;28;20042;-82
2023/12/12 08:41:22;;;;;;;20.00;5.25;;;16.90;93.90;;;;;;4995154;28;20114;-82
2023/12/12 08:43:48;;;;;;;12.60;5.13;;;16.90;93.80;;;;;;4994963;28;20030;-81
2023/12/12 08:46:14;;;;;;;14.73;5.50;;;17.00;93.80;;;;;;4994921;28;20030;-82
2023/12/12 08:48:40;;;;;;;15.80;4.88;;;17.00;93.80;;;;;;4994555;28;20046;-81
2023/12/12 08:51:06;;;;;;;14.85;5.03;;;17.10;93.80;;;;;;5003831;28;20086;-81
2023/12/12 08:53:31;;;;;;;13.15;4.97;;;17.10;93.80;;;;;;4998658;28;20085;-81
2023/12/12 08:55:58;;;;;;;15.40;5.03;;;17.10;93.70;;;;;;4993707;28;20030;-81
2023/12/12 08:58:25;;;;;;;13.93;4.47;;;17.20;93.60;;;;;;4993764;28;20473;-81
2023/12/12 09:00:54;;;;;;;12.45;4.97;;;17.30;93.50;;;;;;4993777;28;20085;-81
2023/12/12 09:03:20;;;;;;;16.08;4.68;;;17.40;93.40;;;;;;4993897;28;20042;-83
2023/12/12 09:05:46;;;;;;;13.18;4.85;;;17.50;93.30;;;;;;4993693;28;20035;-79
2023/12/12 09:08:11;;;;;;;15.60;5.47;;;17.50;93.20;;;;;;4994896;28;20042;-82
2023/12/12 09:10:37;;;;;;;16.08;5.65;;;17.60;93.30;;;;;;4994123;28;20030;-79
2023/12/12 09:13:04;;;;;;;16.88;6.25;;;17.60;93.30;;;;;;4994105;28;20124;-82
2023/12/12 09:15:31;;;;;;;21.00;5.80;;;17.60;93.20;;;;;;4993488;28;20461;-81
2023/12/12 09:17:57;;;;;;;17.80;5.65;;;17.70;93.20;;;;;;4993409;28;20121;-81
2023/12/12 09:20:23;;;;;;;16.85;5.65;;;17.70;93.10;;;;;;4993794;28;20046;-82
2023/12/12 09:22:49;;;;;;;15.18;5.97;;;17.80;93.10;;;;;;4993641;28;20034;-82
2023/12/12 09:25:15;;;;;;;15.60;4.72;;;17.80;93.10;;;;;;4993380;28;20496;-81
2023/12/12 09:27:41;;;;;;;15.52;5.53;;;17.80;93.00;;;;;;4975447;28;20086;-80
2023/12/12 09:30:07;;;;;;;14.52;4.90;;;17.80;92.90;;;;;;4993418;28;20042;-81
2023/12/12 09:32:32;;;;;;;14.13;4.80;;;17.80;93.00;;;;;;4993496;28;20035;-81
2023/12/12 09:34:58;;;;;;;13.77;5.20;;;17.80;92.90;;;;;;4993096;28;20062;-81
2023/12/12 09:37:24;;;;;;;12.43;4.68;;;17.80;93.00;;;;;;4993375;28;20467;-82
2023/12/12 09:39:50;;;;;;;12.70;4.47;;;17.80;93.00;;;;;;4993266;28;20061;-83
2023/12/12 09:42:17;;;;;;;23.08;5.15;;;17.80;93.00;;;;;;4994209;28;20035;-82
2023/12/12 09:45:00;;;;;;;15.80;4.95;;;17.70;93.10;;;;;;4993595;28;20097;-82
2023/12/12 09:47:32;;;;;;;20.15;5.63;;;17.70;93.10;;;;;;4993295;28;20069;-80
2023/12/12 09:49:58;;;;;;;16.42;5.25;;;17.60;92.90;;;;;;4993272;28;20039;-81
2023/12/12 09:52:29;;;;;;;16.98;5.90;;;17.60;93.20;;;;;;4993316;28;20030;-82
2023/12/12 09:54:58;;;;;;;16.17;4.60;;;17.60;93.20;;;;;;4993644;28;20038;-82
2023/12/12 09:57:24;;;;;;;13.85;5.63;;;17.60;93.30;;;;;;4993622;28;20035;-82
2023/12/12 09:59:50;;;;;;;14.88;5.28;;;17.50;93.10;;;;;;4993278;28;20100;-82
2023/12/12 10:02:22;;;;;;;13.93;5.20;;;17.50;93.10;;;;;;4993413;28;20030;-81
2023/12/12 10:04:51;;;;;;;14.15;5.05;;;17.50;93.30;;;;;;4993161;28;20030;-82
2023/12/12 10:07:19;;;;;;;14.23;4.93;;;17.50;93.30;;;;;;4993100;28;20034;-82
2023/12/12 10:09:46;;;;;;;17.33;4.93;;;17.50;93.20;;;;;;4993346;28;20035;-81
2023/12/12 10:12:12;;;;;;;20.63;5.63;;;17.50;93.30;;;;;;4993009;28;20520;-72
2023/12/12 10:14:44;;;;;;;14.25;5.18;;;17.50;93.40;;;;;;4993035;28;20492;-81
2023/12/12 10:17:11;;;;;;;12.38;4.60;;;17.40;93.30;;;;;;4993242;28;20039;-83
2023/12/12 10:19:38;;;;;;;18.02;5.30;;;17.40;93.30;;;;;;4993458;28;20515;-82
2023/12/12 10:22:08;;;;;;;18.13;5.82;;;17.40;93.30;;;;;;4993518;28;20035;-82
2023/12/12 10:24:35;;;;;;;20.17;5.55;;;17.40;93.30;;;;;;4994122;28;20399;-83
2023/12/12 10:27:02;;;;;;;18.15;5.53;;;17.50;93.30;;;;;;4994510;28;20034;-82
2023/12/12 10:29:28;;;;;;;15.80;5.28;;;17.40;93.30;;;;;;4994195;28;20086;-83
2023/12/12 10:31:54;;;;;;;16.23;5.78;;;17.40;93.30;;;;;;4993520;28;20050;-83
2023/12/12 10:34:27;;;;;;;18.90;6.53;;;17.40;93.30;;;;;;4993537;28;20106;-83
2023/12/12 10:36:53;;;;;;;25.05;8.43;;;17.30;93.50;;;;;;4993185;28;20484;-81
2023/12/12 10:39:19;;;;;;;18.83;7.28;;;17.30;93.60;;;;;;4994165;28;20116;-82
2023/12/12 10:41:55;;;;;;;15.07;6.18;;;17.30;93.60;;;;;;4997323;28;20030;-82
2023/12/12 10:44:32;;;;;;;18.83;6.63;;;17.30;93.60;;;;;;4996898;28;20042;-82
2023/12/12 10:47:01;;;;;;;19.38;7.40;;;17.20;93.80;;;;;;4996731;28;20484;-80
2023/12/12 10:49:32;;;;;;;19.60;7.50;;;17.20;93.90;;;;;;4996734;28;20026;-82
2023/12/12 10:52:06;;;;;;;16.23;6.95;;;17.20;93.90;;;;;;4963172;28;20035;-82
2023/12/12 10:54:36;;;;;;;16.75;5.82;;;17.20;93.90;;;;;;4996929;28;20035;-80
2023/12/12 10:57:03;;;;;;;15.05;6.38;;;17.30;94.00;;;;;;4996906;28;20042;-83
2023/12/12 10:59:30;;;;;;;18.77;6.63;;;17.30;94.00;;;;;;4996373;28;20412;-83
2023/12/12 11:01:57;;;;;;;17.75;6.22;;;17.30;93.90;;;;;;4996727;28;20057;-82
2023/12/12 11:04:24;;;;;;;19.42;6.55;;;17.40;93.90;;;;;;4996457;28;20034;-83
2023/12/12 11:06:51;;;;;;;21.33;6.95;;;17.40;93.90;;;;;;4995984;28;20058;-82
2023/12/12 11:09:18;;;;;;;19.08;6.68;;;17.50;94.00;;;;;;4996653;28;20117;-82
2023/12/12 11:11:47;;;;;;;15.13;5.60;;;17.60;94.00;;;;;;4996636;28;20050;-83
2023/12/12 11:14:14;;;;;;;19.00;5.80;;;17.70;94.00;;;;;;4996181;28;20038;-82
2023/12/12 11:16:42;;;;;;;14.85;5.15;;;17.80;94.00;;;;;;4996245;28;20522;-81
2023/12/12 11:19:17;;;;;;;17.05;6.53;;;17.90;93.90;;;;;;4996112;28;20172;-81
2023/12/12 11:21:45;;;;;;;14.55;5.82;;;18.00;93.70;;;;;;4996008;28;20333;-83
2023/12/12 11:24:11;;;;;;;19.30;5.80;;;18.10;93.90;;;;;;4998059;28;20030;-82
2023/12/12 11:26:40;;;;;;;20.83;6.93;;;18.20;93.80;;;;;;4996435;28;20049;-81
2023/12/12 11:29:06;;;;;;;16.02;5.78;;;18.30;93.80;;;;;;4995767;28;20041;-83
2023/12/12 11:31:35;;;;;;;19.70;6.53;;;18.40;93.70;;;;;;4997397;28;20353;-82
2023/12/12 11:34:10;;;;;;;20.65;5.82;;;18.50;93.50;;;;;;4995864;28;20034;-82
2023/12/12 11:36:59;;;;;;;19.55;6.05;;;18.70;93.20;;;;;;4981010;28;20396;-82
2023/12/12 11:39:52;;;;;;;13.95;4.80;;;18.80;93.10;;;;;;4997903;28;20050;-81
2023/12/12 11:42:24;;;;;;;16.90;5.85;;;19.00;92.80;;;;;;4996541;28;20041;-82
2023/12/12 11:44:54;;;;;;;17.85;5.85;;;19.20;92.70;;;;;;4996041;28;20045;-81
2023/12/12 11:47:22;;;;;;;18.98;5.28;;;19.30;92.60;;;;;;4996142;28;20460;-84
2023/12/12 11:49:47;;;;;;;17.17;5.50;;;19.30;92.50;;;;;;4995479;28;20120;-84
2023/12/12 11:52:38;;;;;;;21.95;6.13;;;19.30;92.40;;;;;;4978390;28;20035;-83
2023/12/12 11:55:10;;;;;;;18.15;5.93;;;19.40;92.30;;;;;;4995510;28;20065;-83
2023/12/12 11:57:36;;;;;;;19.27;5.70;;;19.30;92.30;;;;;;4995889;28;20037;-80
2023/12/12 12:00:03;;;;;;;18.98;6.07;;;19.30;92.40;;;;;;5000013;28;20050;-81
2023/12/12 12:02:32;;;;;;;16.73;5.70;;;19.20;92.40;;;;;;5001462;28;20080;-81
2023/12/12 12:04:58;;;;;;;16.40;5.90;;;19.20;92.50;;;;;;4995752;28;20038;-82
2023/12/12 12:07:25;;;;;;;16.42;5.40;;;19.20;92.60;;;;;;4995329;28;20027;-81
2023/12/12 12:09:52;;;;;;;18.10;5.03;;;19.20;92.50;;;;;;4995265;28;20035;-81
2023/12/12 12:12:19;;;;;;;15.68;4.82;;;19.10;92.40;;;;;;4994925;28;20057;-81
2023/12/12 12:14:45;;;;;;;17.95;5.10;;;19.00;92.40;;;;;;4995626;28;20145;-83
2023/12/12 12:17:11;;;;;;;16.42;5.18;;;18.90;92.30;;;;;;4995411;28;20059;-83
2023/12/12 12:19:38;;;;;;;17.23;4.80;;;18.90;92.30;;;;;;4995939;28;20443;-81
2023/12/12 12:22:13;;;;;;;16.42;4.65;;;18.90;92.20;;;;;;4995200;28;20041;-83
2023/12/12 12:24:43;;;;;;;15.57;5.35;;;18.90;92.20;;;;;;4995394;28;20489;-81
2023/12/12 12:27:09;;;;;;;14.30;5.00;;;18.80;92.30;;;;;;4995460;28;20440;-81
2023/12/12 12:29:35;;;;;;;17.23;5.25;;;18.70;92.30;;;;;;4995377;28;20092;-82
2023/12/12 12:32:13;;;;;;;22.88;4.72;;;18.70;92.40;;;;;;4995143;28;20117;-83